createdAt,value
2018-07-02T00:00:12.364Z,17.90
2018-07-02T00:02:40.572Z,18.00
2018-07-02T00:05:09.132Z,17.80
2018-07-02T00:07:37.312Z,17.90
2018-07-02T00:10:05.556Z,17.70
2018-07-02T00:12:33.789Z,17.80
2018-07-02T00:15:01.990Z,17.70
2018-07-02T00:17:30.117Z,17.50
2018-07-02T00:19:58.279Z,17.50
2018-07-02T00:22:26.403Z,17.30
2018-07-02T00:24:54.521Z,17.20
2018-07-02T00:27:22.684Z,17.00
2018-07-02T00:29:50.848Z,17.00
2018-07-02T00:32:19.009Z,17.00
2018-07-02T00:34:47.220Z,17.00
2018-07-02T00:37:15.368Z,17.00
2018-07-02T00:39:43.526Z,17.00
2018-07-02T00:42:11.704Z,16.90
2018-07-02T00:44:39.820Z,16.90
2018-07-02T00:47:07.994Z,17.00
2018-07-02T00:49:36.145Z,17.00
2018-07-02T00:52:04.321Z,16.80
2018-07-02T00:54:32.512Z,16.70
2018-07-02T00:57:00.670Z,16.60
2018-07-02T00:59:28.843Z,16.60
2018-07-02T01:01:58.927Z,16.50
2018-07-02T01:04:27.145Z,16.40
2018-07-02T01:06:55.656Z,16.40
2018-07-02T01:09:23.791Z,16.40
2018-07-02T01:11:51.972Z,16.40
2018-07-02T01:14:20.108Z,16.40
2018-07-02T01:16:48.273Z,16.30
2018-07-02T01:19:16.415Z,16.30
2018-07-02T01:21:44.535Z,16.20
2018-07-02T01:24:12.894Z,16.20
2018-07-02T01:26:41.105Z,16.10
2018-07-02T01:29:09.257Z,16.10
2018-07-02T01:31:37.399Z,16.10
2018-07-02T01:34:05.604Z,16.10
2018-07-02T01:36:33.732Z,15.90
2018-07-02T01:39:01.879Z,15.80
2018-07-02T01:41:30.027Z,15.80
2018-07-02T01:43:58.173Z,15.70
2018-07-02T01:46:26.333Z,15.90
2018-07-02T01:48:54.490Z,15.70
2018-07-02T01:51:22.617Z,15.80
2018-07-02T01:53:50.759Z,15.80
2018-07-02T01:56:18.940Z,15.80
2018-07-02T01:58:47.078Z,15.60
2018-07-02T02:01:15.266Z,15.60
2018-07-02T02:03:43.385Z,15.60
2018-07-02T02:06:11.526Z,15.50
2018-07-02T02:08:39.631Z,15.50
2018-07-02T02:11:07.764Z,15.50
2018-07-02T02:13:35.938Z,15.50
2018-07-02T02:16:04.219Z,15.40
2018-07-02T02:21:00.316Z,15.40
2018-07-02T02:23:28.476Z,15.40
2018-07-02T02:25:56.620Z,15.30
2018-07-02T02:28:24.760Z,15.40
2018-07-02T02:30:52.904Z,15.40
2018-07-02T02:33:21.064Z,15.40
2018-07-02T02:35:49.244Z,15.40
2018-07-02T02:38:17.443Z,15.40
2018-07-02T02:40:45.572Z,15.20
2018-07-02T02:43:13.711Z,15.30
2018-07-02T02:45:41.828Z,15.30
2018-07-02T02:48:09.981Z,15.30
2018-07-02T02:50:38.105Z,15.30
2018-07-02T02:53:06.262Z,15.30
2018-07-02T02:55:34.492Z,15.20
2018-07-02T02:58:02.623Z,15.20
2018-07-02T03:00:30.812Z,15.20
2018-07-02T03:02:58.958Z,15.10
2018-07-02T03:05:27.072Z,15.30
2018-07-02T03:07:55.236Z,15.10
2018-07-02T03:10:23.372Z,15.20
2018-07-02T03:12:51.560Z,15.20
2018-07-02T03:15:19.713Z,15.20
2018-07-02T03:17:47.914Z,15.00
2018-07-02T03:20:16.068Z,15.00
2018-07-02T03:22:44.174Z,14.90
2018-07-02T03:25:12.326Z,15.00
2018-07-02T03:27:40.448Z,14.90
2018-07-02T03:30:08.605Z,14.90
2018-07-02T03:32:36.765Z,14.90
2018-07-02T03:35:04.920Z,15.00
2018-07-02T03:37:33.104Z,14.90
2018-07-02T03:40:01.296Z,14.90
2018-07-02T03:42:29.427Z,14.90
2018-07-02T03:44:57.586Z,15.00
2018-07-02T03:47:25.778Z,15.00
2018-07-02T03:49:53.960Z,15.10
2018-07-02T03:52:22.143Z,15.00
2018-07-02T03:54:50.331Z,15.00
2018-07-02T03:57:18.481Z,15.00
2018-07-02T03:59:46.630Z,15.00
2018-07-02T04:02:14.831Z,15.10
2018-07-02T04:04:43.002Z,15.10
2018-07-02T04:07:11.144Z,15.10
2018-07-02T04:09:39.314Z,15.20
2018-07-02T04:14:35.399Z,15.10
2018-07-02T04:17:03.568Z,15.20
2018-07-02T04:19:31.764Z,15.20
2018-07-02T04:21:59.934Z,15.20
2018-07-02T04:24:28.091Z,15.20
2018-07-02T04:26:56.272Z,15.20
2018-07-02T04:29:24.450Z,15.20
2018-07-02T04:31:52.686Z,15.20
2018-07-02T04:34:20.837Z,15.20
2018-07-02T04:36:48.976Z,15.20
2018-07-02T04:39:17.119Z,15.20
2018-07-02T04:41:45.276Z,15.20
2018-07-02T04:44:13.445Z,15.30
2018-07-02T04:46:41.633Z,15.30
2018-07-02T04:49:09.807Z,15.40
2018-07-02T04:51:37.916Z,15.40
2018-07-02T04:54:06.137Z,15.50
2018-07-02T04:56:34.377Z,15.40
2018-07-02T04:59:03.450Z,15.50
2018-07-02T05:01:31.589Z,15.50
2018-07-02T05:03:59.752Z,15.50
2018-07-02T05:06:27.879Z,15.60
2018-07-02T05:08:56.068Z,15.50
2018-07-02T05:11:24.225Z,15.50
2018-07-02T05:13:52.408Z,15.60
2018-07-02T05:16:20.569Z,15.60
2018-07-02T05:18:48.765Z,15.60
2018-07-02T05:21:16.923Z,15.70
2018-07-02T05:23:45.138Z,15.70
2018-07-02T05:26:13.271Z,15.80
2018-07-02T05:28:41.428Z,15.80
2018-07-02T05:31:09.655Z,15.80
2018-07-02T05:33:37.769Z,15.90
2018-07-02T05:36:05.904Z,16.00
2018-07-02T05:38:34.130Z,16.00
2018-07-02T05:41:02.291Z,16.00
2018-07-02T05:43:30.432Z,16.00
2018-07-02T05:45:58.657Z,16.00
2018-07-02T05:48:26.778Z,16.00
2018-07-02T05:50:54.944Z,16.00
2018-07-02T05:53:23.084Z,16.00
2018-07-02T05:55:51.245Z,16.10
2018-07-02T05:58:19.367Z,16.20
2018-07-02T06:00:47.597Z,16.20
2018-07-02T06:03:15.661Z,16.20
2018-07-02T06:05:43.842Z,16.30
2018-07-02T06:08:11.973Z,16.50
2018-07-02T06:10:40.417Z,16.60
2018-07-02T06:13:08.582Z,16.50
2018-07-02T06:15:36.898Z,16.60
2018-07-02T06:20:32.997Z,16.80
2018-07-02T06:23:01.181Z,16.90
2018-07-02T06:25:29.344Z,17.00
2018-07-02T06:27:57.548Z,17.00
2018-07-02T06:30:25.742Z,17.10
2018-07-02T06:32:53.872Z,17.10
2018-07-02T06:35:22.058Z,17.30
2018-07-02T06:40:18.113Z,17.30
2018-07-02T06:42:46.321Z,17.40
2018-07-02T06:45:14.501Z,17.40
2018-07-02T06:47:42.672Z,17.50
2018-07-02T06:50:10.797Z,17.70
2018-07-02T06:52:38.929Z,17.70
2018-07-02T06:55:07.858Z,17.80
2018-07-02T06:57:36.830Z,17.80
2018-07-02T07:00:06.552Z,17.90
2018-07-02T07:02:34.845Z,18.00
2018-07-02T07:05:03.242Z,18.10
2018-07-02T07:07:31.540Z,18.20
2018-07-02T07:09:59.653Z,18.20
2018-07-02T07:12:27.833Z,18.30
2018-07-02T07:14:55.949Z,18.30
2018-07-02T07:17:24.126Z,18.30
2018-07-02T07:19:52.250Z,18.50
2018-07-02T07:22:20.419Z,18.50
2018-07-02T07:24:48.552Z,18.60
2018-07-02T07:27:16.813Z,18.60
2018-07-02T07:29:44.970Z,18.70
2018-07-02T07:32:13.140Z,18.80
2018-07-02T07:34:41.294Z,18.80
2018-07-02T07:37:09.444Z,18.90
2018-07-02T07:39:37.633Z,19.00
2018-07-02T07:42:06.044Z,19.20
2018-07-02T07:44:34.199Z,19.20
2018-07-02T07:47:02.393Z,19.20
2018-07-02T07:49:30.569Z,19.30
2018-07-02T07:51:58.719Z,19.40
2018-07-02T07:54:26.876Z,19.50
2018-07-02T07:56:55.009Z,19.50
2018-07-02T07:59:23.189Z,19.60
2018-07-02T08:01:51.296Z,19.60
2018-07-02T08:04:19.481Z,19.80
2018-07-02T08:06:47.641Z,19.80
2018-07-02T08:09:15.807Z,19.90
2018-07-02T08:11:44.114Z,19.90
2018-07-02T08:14:12.228Z,20.00
2018-07-02T08:16:40.389Z,20.10
2018-07-02T08:19:08.575Z,20.10
2018-07-02T08:21:36.675Z,20.10
2018-07-02T08:24:04.835Z,20.20
2018-07-02T08:26:32.976Z,20.20
2018-07-02T08:29:01.448Z,20.20
2018-07-02T08:31:29.581Z,20.30
2018-07-02T08:33:57.736Z,20.30
2018-07-02T08:36:25.866Z,20.40
2018-07-02T08:38:54.031Z,20.40
2018-07-02T08:41:22.140Z,20.40
2018-07-02T08:43:50.299Z,20.60
2018-07-02T08:46:18.524Z,20.60
2018-07-02T08:48:46.780Z,20.60
2018-07-02T08:51:14.903Z,20.60
2018-07-02T08:53:43.049Z,20.70
2018-07-02T08:56:11.235Z,20.70
2018-07-02T08:58:39.484Z,20.70
2018-07-02T09:01:07.676Z,20.80
2018-07-02T09:03:35.881Z,20.80
2018-07-02T09:06:04.044Z,20.80
2018-07-02T09:08:32.680Z,20.80
2018-07-02T09:11:00.825Z,20.80
2018-07-02T09:13:29.015Z,20.90
2018-07-02T09:15:57.160Z,20.90
2018-07-02T09:18:25.308Z,20.90
2018-07-02T09:20:53.432Z,20.90
2018-07-02T09:23:21.640Z,20.90
2018-07-02T09:25:49.769Z,20.90
2018-07-02T09:28:17.918Z,21.10
2018-07-02T09:30:46.069Z,21.20
2018-07-02T09:33:14.194Z,21.20
2018-07-02T09:35:42.326Z,21.20
2018-07-02T09:38:10.459Z,21.30
2018-07-02T09:40:38.655Z,21.30
2018-07-02T09:43:06.828Z,21.40
2018-07-02T09:45:35.032Z,21.40
2018-07-02T09:48:03.208Z,21.50
2018-07-02T09:50:31.368Z,21.40
2018-07-02T09:52:59.516Z,21.50
2018-07-02T09:55:27.694Z,21.60
2018-07-02T09:57:56.065Z,21.70
2018-07-02T10:00:24.195Z,21.70
2018-07-02T10:02:52.370Z,21.90
2018-07-02T10:05:20.583Z,21.90
2018-07-02T10:07:49.139Z,22.00
2018-07-02T10:10:17.346Z,22.00
2018-07-02T10:12:45.439Z,22.00
2018-07-02T10:15:13.566Z,22.00
2018-07-02T10:17:41.714Z,22.10
2018-07-02T10:20:09.868Z,22.10
2018-07-02T10:22:38.004Z,22.00
2018-07-02T10:25:06.163Z,22.00
2018-07-02T10:27:34.562Z,22.00
2018-07-02T10:30:02.829Z,22.00
2018-07-02T10:32:31.245Z,22.00
2018-07-02T10:34:59.518Z,22.30
2018-07-02T10:37:27.713Z,22.20
2018-07-02T10:39:55.875Z,22.20
2018-07-02T10:42:24.006Z,22.20
2018-07-02T10:44:52.175Z,22.40
2018-07-02T10:47:20.421Z,22.50
2018-07-02T10:49:48.589Z,22.50
2018-07-02T10:52:16.765Z,22.50
2018-07-02T10:54:44.892Z,22.50
2018-07-02T11:02:08.923Z,22.60
2018-07-02T11:07:04.999Z,22.60
2018-07-02T11:09:33.241Z,22.60
2018-07-02T11:12:01.378Z,22.60
2018-07-02T11:14:29.521Z,22.60
2018-07-02T11:16:57.716Z,22.70
2018-07-02T11:19:25.846Z,22.80
2018-07-02T11:21:53.972Z,22.90
2018-07-02T11:24:22.158Z,22.90
2018-07-02T11:26:50.348Z,22.90
2018-07-02T11:29:18.513Z,23.00
2018-07-02T11:31:46.695Z,23.10
2018-07-02T11:34:14.807Z,23.00
2018-07-02T11:36:43.018Z,23.10
2018-07-02T11:39:11.909Z,23.10
2018-07-02T11:41:40.168Z,23.10
2018-07-02T11:44:08.467Z,23.10
2018-07-02T11:46:36.560Z,23.10
2018-07-02T11:49:04.794Z,23.20
2018-07-02T11:51:32.928Z,23.30
2018-07-02T11:54:01.146Z,23.40
2018-07-02T11:56:29.318Z,23.40
2018-07-02T11:58:57.561Z,23.40
2018-07-02T12:01:25.788Z,23.50
2018-07-02T12:03:53.916Z,23.40
2018-07-02T12:06:22.154Z,23.40
2018-07-02T12:08:50.295Z,23.30
2018-07-02T12:11:18.447Z,23.50
2018-07-02T12:13:46.653Z,23.50
2018-07-02T12:16:14.777Z,23.50
2018-07-02T12:18:42.918Z,23.50
2018-07-02T12:23:38.995Z,23.60
2018-07-02T12:26:07.337Z,23.70
2018-07-02T12:28:35.505Z,23.60
2018-07-02T12:31:03.697Z,23.70
2018-07-02T12:33:32.823Z,23.70
2018-07-02T12:36:01.380Z,23.70
2018-07-02T12:38:29.576Z,23.80
2018-07-02T12:40:57.720Z,23.90
2018-07-02T12:43:25.851Z,23.90
2018-07-02T12:45:54.016Z,23.90
2018-07-02T12:48:22.149Z,23.90
2018-07-02T12:50:50.323Z,23.80
2018-07-02T12:53:18.501Z,23.80
2018-07-02T12:55:46.684Z,23.80
2018-07-02T12:58:14.841Z,23.90
2018-07-02T13:00:42.976Z,23.90
2018-07-02T13:03:11.150Z,24.00
2018-07-02T13:05:39.377Z,24.00
2018-07-02T13:08:07.564Z,24.00
2018-07-02T13:10:35.745Z,24.00
2018-07-02T13:13:03.901Z,24.10
2018-07-02T13:15:32.067Z,24.20
2018-07-02T13:18:00.316Z,24.10
2018-07-02T13:20:28.517Z,24.10
2018-07-02T13:22:56.729Z,24.20
2018-07-02T13:25:24.890Z,24.30
2018-07-02T13:27:53.112Z,24.40
2018-07-02T13:30:21.382Z,24.30
2018-07-02T13:32:49.449Z,24.30
2018-07-02T13:35:17.655Z,24.30
2018-07-02T13:37:45.801Z,24.40
2018-07-02T13:40:13.914Z,24.60
2018-07-02T13:45:10.138Z,24.80
2018-07-02T13:50:06.450Z,25.10
2018-07-02T13:52:34.569Z,25.10
2018-07-02T13:55:02.697Z,25.20
2018-07-02T13:57:30.820Z,25.70
2018-07-02T13:59:58.941Z,26.70
2018-07-02T14:02:27.207Z,26.80
2018-07-02T14:04:55.266Z,27.20
2018-07-02T14:07:23.399Z,28.20
2018-07-02T14:09:51.569Z,29.30
2018-07-02T14:12:19.716Z,31.00
2018-07-02T14:14:47.884Z,31.00
2018-07-02T14:17:16.024Z,30.40
2018-07-02T14:19:44.172Z,29.20
2018-07-02T14:22:12.393Z,27.90
2018-07-02T14:24:40.539Z,27.40
2018-07-02T14:27:08.719Z,27.30
2018-07-02T14:29:36.894Z,27.50
2018-07-02T14:32:05.049Z,27.40
2018-07-02T14:34:33.216Z,27.50
2018-07-02T14:37:01.386Z,27.70
2018-07-02T14:39:29.620Z,28.10
2018-07-02T14:41:57.760Z,28.10
2018-07-02T14:44:25.895Z,28.20
2018-07-02T14:46:54.022Z,28.30
2018-07-02T14:49:22.152Z,28.20
2018-07-02T14:54:18.226Z,28.50
2018-07-02T14:56:46.334Z,28.60
2018-07-02T14:59:14.511Z,29.10
2018-07-02T15:01:42.640Z,29.10
2018-07-02T15:04:10.792Z,29.20
2018-07-02T15:06:38.920Z,29.20
2018-07-02T15:09:10.011Z,29.50
2018-07-02T15:11:38.287Z,29.70
2018-07-02T15:14:06.440Z,29.50
2018-07-02T15:16:34.580Z,29.50
2018-07-02T15:19:02.997Z,29.90
2018-07-02T15:21:31.185Z,29.00
2018-07-02T15:23:59.321Z,29.70
2018-07-02T15:26:27.464Z,29.70
2018-07-02T15:28:55.620Z,29.70
2018-07-02T15:31:23.789Z,30.00
2018-07-02T15:33:51.974Z,30.10
2018-07-02T15:36:20.770Z,29.80
2018-07-02T15:38:48.944Z,31.30
2018-07-02T15:41:17.246Z,31.30
2018-07-02T15:43:45.477Z,31.40
2018-07-02T15:46:13.613Z,32.10
2018-07-02T15:48:41.788Z,32.80
2018-07-02T15:51:09.903Z,32.80
2018-07-02T15:53:38.085Z,33.70
2018-07-02T15:56:06.235Z,33.70
2018-07-02T15:58:34.378Z,33.70
2018-07-02T16:01:02.495Z,33.80
2018-07-02T16:03:30.723Z,33.30
2018-07-02T16:05:58.902Z,33.30
2018-07-02T16:08:27.069Z,33.80
2018-07-02T16:10:55.200Z,34.40
2018-07-02T16:13:23.344Z,34.90
2018-07-02T16:15:51.484Z,35.00
2018-07-02T16:18:19.668Z,35.00
2018-07-02T16:20:47.835Z,34.50
2018-07-02T16:23:16.048Z,34.30
2018-07-02T16:25:44.406Z,34.20
2018-07-02T16:28:12.361Z,34.20
2018-07-02T16:30:40.497Z,33.90
2018-07-02T16:33:08.720Z,33.80
2018-07-02T16:35:36.897Z,33.50
2018-07-02T16:38:05.419Z,33.50
2018-07-02T16:40:33.701Z,34.70
2018-07-02T16:43:01.962Z,34.70
2018-07-02T16:45:32.252Z,35.20
2018-07-02T16:48:00.410Z,36.20
2018-07-02T16:50:28.555Z,36.30
2018-07-02T16:52:57.037Z,36.30
2018-07-02T16:55:25.297Z,36.50
2018-07-02T16:57:53.408Z,35.60
2018-07-02T17:00:21.542Z,35.40
2018-07-02T17:02:49.710Z,36.00
2018-07-02T17:05:17.880Z,36.40
2018-07-02T17:07:46.045Z,36.40
2018-07-02T17:10:14.190Z,36.50
2018-07-02T17:12:42.338Z,36.50
2018-07-02T17:15:10.540Z,36.30
2018-07-02T17:17:38.765Z,36.70
2018-07-02T17:20:07.289Z,36.10
2018-07-02T17:22:35.469Z,36.50
2018-07-02T17:25:03.677Z,36.50
2018-07-02T17:27:31.856Z,35.90
2018-07-02T17:29:59.985Z,36.40
2018-07-02T17:32:28.125Z,35.70
2018-07-02T17:34:56.257Z,35.60
2018-07-02T17:37:24.389Z,35.40
2018-07-02T17:39:52.560Z,35.30
2018-07-02T17:42:20.705Z,35.40
2018-07-02T17:44:48.844Z,35.20
2018-07-02T17:47:16.956Z,35.80
2018-07-02T17:49:45.129Z,35.80
2018-07-02T17:52:13.261Z,35.90
2018-07-02T17:54:41.413Z,35.90
2018-07-02T17:57:09.557Z,35.90
2018-07-02T17:59:37.668Z,35.70
2018-07-02T18:02:05.836Z,35.80
2018-07-02T18:04:34.000Z,35.70
2018-07-02T18:07:02.139Z,35.60
2018-07-02T18:09:30.291Z,35.90
2018-07-02T18:11:58.464Z,34.70
2018-07-02T18:14:26.614Z,35.10
2018-07-02T18:16:54.847Z,34.90
2018-07-02T18:21:50.961Z,34.90
2018-07-02T18:24:19.105Z,34.90
2018-07-02T18:26:47.599Z,32.80
2018-07-02T18:29:15.689Z,32.80
2018-07-02T18:31:43.837Z,32.30
2018-07-02T18:34:11.989Z,31.90
2018-07-02T18:36:40.129Z,31.70
2018-07-02T18:39:10.240Z,30.90
2018-07-02T18:41:38.360Z,29.20
2018-07-02T18:44:06.909Z,28.40
2018-07-02T18:46:35.060Z,27.80
2018-07-02T18:49:03.282Z,27.20
2018-07-02T18:51:31.374Z,26.70
2018-07-02T18:53:59.491Z,26.10
2018-07-02T18:56:27.638Z,25.90
2018-07-02T18:58:55.896Z,25.90
2018-07-02T19:01:24.008Z,25.90
2018-07-02T19:03:52.177Z,26.20
2018-07-02T19:06:20.347Z,26.30
2018-07-02T19:08:48.884Z,26.40
2018-07-02T19:11:17.119Z,26.30
2018-07-02T19:13:45.268Z,25.60
2018-07-02T19:16:13.461Z,25.10
2018-07-02T19:18:41.604Z,24.90
2018-07-02T19:21:09.838Z,24.90
2018-07-02T19:23:38.028Z,24.80
2018-07-02T19:26:06.194Z,24.70
2018-07-02T19:28:34.368Z,24.60
2018-07-02T19:31:02.669Z,24.40
2018-07-02T19:33:30.838Z,24.20
2018-07-02T19:35:59.237Z,24.20
2018-07-02T19:38:27.366Z,24.10
2018-07-02T19:43:23.406Z,23.80
2018-07-02T19:45:51.574Z,23.70
2018-07-02T19:48:19.764Z,23.70
2018-07-02T19:50:47.949Z,23.70
2018-07-02T19:53:16.090Z,23.50
2018-07-02T19:55:44.263Z,23.50
2018-07-02T19:58:12.406Z,23.30
2018-07-02T20:00:40.582Z,23.30
2018-07-02T20:03:08.799Z,23.30
2018-07-02T20:05:37.789Z,23.20
2018-07-02T20:08:06.046Z,23.10
2018-07-02T20:10:34.243Z,23.20
2018-07-02T20:13:02.364Z,23.10
2018-07-02T20:15:30.544Z,23.00
2018-07-02T20:17:58.856Z,23.00
2018-07-02T20:20:27.028Z,23.00
2018-07-02T20:22:55.251Z,22.70
2018-07-02T20:25:23.515Z,22.70
2018-07-02T20:27:51.688Z,22.80
2018-07-02T20:30:19.815Z,22.60
2018-07-02T20:32:47.961Z,22.50
2018-07-02T20:35:16.087Z,22.50
2018-07-02T20:37:44.263Z,22.50
2018-07-02T20:40:12.408Z,22.40
2018-07-02T20:42:40.556Z,22.40
2018-07-02T20:45:09.116Z,22.20
2018-07-02T20:47:37.247Z,22.20
2018-07-02T20:50:05.381Z,22.20
2018-07-02T20:52:33.552Z,22.10
2018-07-02T20:55:01.688Z,22.10
2018-07-02T20:57:29.830Z,22.00
2018-07-02T20:59:57.954Z,21.90
2018-07-02T21:02:26.296Z,21.90
2018-07-02T21:04:54.415Z,21.80
2018-07-02T21:07:22.597Z,21.90
2018-07-02T21:09:50.760Z,21.70
2018-07-02T21:12:18.881Z,21.60
2018-07-02T21:14:47.014Z,21.60
2018-07-02T21:17:15.122Z,21.60
2018-07-02T21:19:43.256Z,21.60
2018-07-02T21:22:11.380Z,21.60
2018-07-02T21:24:39.513Z,21.60
2018-07-02T21:29:35.589Z,21.60
2018-07-02T21:32:03.812Z,21.60
2018-07-02T21:34:31.932Z,21.50
2018-07-02T21:37:00.092Z,21.60
2018-07-02T21:39:28.276Z,21.40
2018-07-02T21:41:56.408Z,21.40
2018-07-02T21:44:24.541Z,21.20
2018-07-02T21:46:52.778Z,21.30
2018-07-02T21:49:20.904Z,21.20
2018-07-02T21:51:49.036Z,21.10
2018-07-02T21:54:17.176Z,21.00
2018-07-02T21:56:45.332Z,20.80
2018-07-02T21:59:13.460Z,20.80
2018-07-02T22:01:41.638Z,20.80
2018-07-02T22:04:09.790Z,20.70
2018-07-02T22:09:07.677Z,20.70
2018-07-02T22:11:35.841Z,20.60
2018-07-02T22:14:04.184Z,20.50
2018-07-02T22:16:32.304Z,20.40
2018-07-02T22:19:00.433Z,20.20
2018-07-02T22:21:28.615Z,20.30
2018-07-02T22:23:56.776Z,20.30
2018-07-02T22:26:24.899Z,20.20
2018-07-02T22:28:53.051Z,20.20
2018-07-02T22:31:21.192Z,20.20
2018-07-02T22:33:49.304Z,20.10
2018-07-02T22:36:17.417Z,20.10
2018-07-02T22:38:45.580Z,20.10
2018-07-02T22:41:13.712Z,20.00
2018-07-02T22:43:41.925Z,19.80
2018-07-02T22:46:10.062Z,19.70
2018-07-02T22:48:38.204Z,19.70
2018-07-02T22:51:06.478Z,19.70
2018-07-02T22:53:34.609Z,19.70
2018-07-02T22:56:04.850Z,19.60
2018-07-02T22:58:32.994Z,19.60
2018-07-02T23:01:01.528Z,19.60
2018-07-02T23:03:29.650Z,19.40
2018-07-02T23:05:57.856Z,19.40
2018-07-02T23:08:26.804Z,19.40
2018-07-02T23:10:54.949Z,19.40
2018-07-02T23:13:23.299Z,19.40
2018-07-02T23:15:55.654Z,19.30
2018-07-02T23:18:24.044Z,19.40
2018-07-02T23:20:52.213Z,19.20
2018-07-02T23:23:20.411Z,19.20
2018-07-02T23:25:48.541Z,19.20
2018-07-02T23:28:16.740Z,19.10
2018-07-02T23:30:44.857Z,19.00
2018-07-02T23:33:12.981Z,19.00
2018-07-02T23:35:41.146Z,19.00
2018-07-02T23:38:09.284Z,19.00
2018-07-02T23:40:37.417Z,19.00
2018-07-02T23:43:05.564Z,18.90
2018-07-02T23:45:33.689Z,18.80
2018-07-02T23:48:01.852Z,18.80
2018-07-02T23:50:30.180Z,18.70
2018-07-02T23:52:58.305Z,18.70
2018-07-02T23:55:26.473Z,18.70
2018-07-02T23:57:54.602Z,18.70
